Time;durP1;ratioP1;P1;durP2;ratioP2;P2;SDS_P1;SDS_P2;PMS_P1;PMS_P2;Temp;Humidity;BMP_temperature;BMP_pressure;BME280_temperature;BME280_humidity;BME280_pressure;Samples;Min_cycle;Max_cycle;Signal;HPM_P1;HPM_P2
2022/09/08 00:01:26;;;;;;;3.33;3.03;;;;;;;25.97;67.30;100507.56;5014513;28;20050;-71
2022/09/08 00:03:54;;;;;;;3.28;2.97;;;;;;;26.00;67.00;100503.97;5019690;28;20049;-72
2022/09/08 00:06:22;;;;;;;3.72;2.80;;;;;;;25.87;67.14;100517.50;5019084;28;20539;-71
2022/09/08 00:08:51;;;;;;;3.60;3.30;;;;;;;25.95;66.48;100500.72;5017944;28;20034;-71
2022/09/08 00:11:23;;;;;;;6.65;3.08;;;;;;;25.67;67.43;100488.91;5014472;28;20050;-71
2022/09/08 00:13:51;;;;;;;5.32;3.22;;;;;;;25.61;67.41;100491.22;5016443;28;20064;-71
2022/09/08 00:16:19;;;;;;;5.10;2.72;;;;;;;25.71;66.95;100491.72;5021748;28;20400;-71
2022/09/08 00:18:50;;;;;;;5.20;2.70;;;;;;;25.55;66.94;100480.78;5013788;28;20046;-70
2022/09/08 00:21:24;;;;;;;2.90;2.60;;;;;;;25.62;66.08;100473.22;5014673;28;20054;-71
2022/09/08 00:23:52;;;;;;;2.83;2.53;;;;;;;25.59;65.51;100462.81;5014504;28;20037;-70
2022/09/08 00:26:21;;;;;;;8.20;2.85;;;;;;;25.73;64.97;100456.53;5021382;28;20045;-71
2022/09/08 00:28:50;;;;;;;7.15;2.90;;;;;;;25.84;64.66;100452.97;5015834;28;20061;-72
2022/09/08 00:31:17;;;;;;;2.55;2.35;;;;;;;25.88;64.37;100442.59;4997090;28;20065;-72
2022/09/08 00:33:46;;;;;;;3.25;2.20;;;;;;;25.83;64.74;100440.16;5014448;28;20050;-72
2022/09/08 00:36:15;;;;;;;3.03;2.42;;;;;;;25.79;64.71;100451.34;4980537;28;20076;-70
2022/09/08 00:38:50;;;;;;;2.60;2.30;;;;;;;25.90;64.64;100459.81;5016177;28;20056;-71
2022/09/08 00:41:22;;;;;;;2.65;2.45;;;;;;;25.98;64.01;100464.31;5013715;28;20057;-71
2022/09/08 00:44:00;;;;;;;3.38;2.47;;;;;;;26.01;63.88;100465.53;5024089;28;20053;-71
2022/09/08 00:46:41;;;;;;;2.58;2.38;;;;;;;25.98;63.51;100455.09;4996783;28;20045;-71
2022/09/08 00:49:16;;;;;;;3.10;2.63;;;;;;;26.07;63.62;100449.94;5013917;28;20406;-71
2022/09/08 00:51:49;;;;;;;2.85;2.63;;;;;;;26.20;62.62;100449.63;5016483;28;20053;-71
2022/09/08 00:54:19;;;;;;;2.50;2.15;;;;;;;25.86;64.04;100451.38;5022703;28;20519;-69
2022/09/08 00:56:49;;;;;;;2.60;2.40;;;;;;;26.08;63.29;100459.16;5021431;28;20041;-71
2022/09/08 00:59:24;;;;;;;3.92;2.50;;;;;;;25.87;63.67;100464.25;4996068;28;20057;-71
2022/09/08 01:01:54;;;;;;;5.30;2.55;;;;;;;25.76;64.43;100458.53;5011824;28;20054;-72
2022/09/08 01:04:23;;;;;;;3.58;2.63;;;;;;;26.00;63.40;100455.50;5003726;28;20057;-71
2022/09/08 01:13:06;;;;;;;3.75;2.95;;;;;;;25.98;63.90;100453.09;5015805;28;20495;-70
2022/09/08 01:15:34;;;;;;;5.50;2.72;;;;;;;26.01;64.15;100471.13;5015243;28;20519;-71
2022/09/08 01:18:03;;;;;;;6.35;2.60;;;;;;;25.91;64.16;100467.06;5015877;28;20051;-71
2022/09/08 01:20:40;;;;;;;5.00;2.92;;;;;;;25.97;64.04;100476.72;5027059;28;20037;-71
2022/09/08 01:23:22;;;;;;;2.50;2.30;;;;;;;25.86;64.34;100473.81;5014182;28;20053;-71
2022/09/08 01:26:11;;;;;;;2.83;2.60;;;;;;;25.61;65.30;100451.22;5013511;28;20053;-71
2022/09/08 01:29:01;;;;;;;2.95;2.75;;;;;;;25.89;64.50;100447.81;5003714;28;20045;-71
2022/09/08 01:31:32;;;;;;;3.95;3.10;;;;;;;25.71;65.46;100436.47;5013081;28;20045;-71
2022/09/08 01:34:00;;;;;;;4.68;3.50;;;;;;;25.71;65.45;100439.28;5012679;28;20050;-72
2022/09/08 01:36:28;;;;;;;2.80;2.60;;;;;;;25.65;65.82;100432.41;5012820;28;20062;-71
2022/09/08 01:38:56;;;;;;;2.83;2.63;;;;;;;25.63;65.98;100427.22;5012240;28;20524;-71
2022/09/08 01:41:24;;;;;;;6.15;3.10;;;;;;;25.51;66.71;100424.66;5012279;28;20404;-71
2022/09/08 01:43:52;;;;;;;5.82;3.20;;;;;;;25.65;66.27;100440.03;5012712;28;20057;-70
2022/09/08 01:46:20;;;;;;;4.13;3.00;;;;;;;25.49;66.91;100430.66;5012474;28;20053;-71
2022/09/08 01:48:48;;;;;;;3.97;3.05;;;;;;;25.39;67.72;100433.34;5012757;28;20058;-70
2022/09/08 01:51:16;;;;;;;6.70;3.28;;;;;;;25.63;66.96;100421.63;4995768;28;20045;-71
2022/09/08 01:53:44;;;;;;;2.78;2.58;;;;;;;25.53;67.25;100399.06;5012212;28;20485;-71
2022/09/08 01:56:12;;;;;;;3.85;2.92;;;;;;;25.32;68.33;100389.31;5012024;28;20058;-71
2022/09/08 01:58:40;;;;;;;3.45;3.10;;;;;;;25.27;68.60;100387.66;5012615;28;20042;-71
2022/09/08 02:01:11;;;;;;;3.15;2.85;;;;;;;25.28;69.13;100383.69;5004365;28;20046;-70
2022/09/08 02:03:38;;;;;;;5.95;3.40;;;;;;;25.21;69.72;100373.22;5012309;28;20054;-70
2022/09/08 02:06:07;;;;;;;5.13;3.78;;;;;;;25.13;70.58;100365.13;5010524;28;20057;-71
2022/09/08 02:08:35;;;;;;;4.10;3.70;;;;;;;25.14;70.71;100358.34;5012645;28;20038;-71
2022/09/08 02:11:03;;;;;;;5.05;3.70;;;;;;;25.02;71.58;100359.44;5012163;28;20041;-71
2022/09/08 02:13:33;;;;;;;4.40;4.00;;;;;;;24.84;72.68;100374.06;5012594;28;20489;-72
2022/09/08 02:16:06;;;;;;;4.38;3.67;;;;;;;25.08;72.06;100388.69;5012400;28;20050;-72
2022/09/08 02:18:34;;;;;;;5.40;3.53;;;;;;;24.98;72.52;100390.19;5009312;28;20057;-71
2022/09/08 02:21:11;;;;;;;4.63;4.10;;;;;;;24.98;73.43;100394.97;5012127;28;20049;-70
2022/09/08 02:23:41;;;;;;;4.63;4.20;;;;;;;24.96;73.69;100395.34;5012581;28;20488;-71
2022/09/08 02:26:19;;;;;;;5.35;4.82;;;;;;;24.74;75.60;100380.31;5012450;28;20090;-71
2022/09/08 02:28:51;;;;;;;8.85;4.95;;;;;;;25.06;74.44;100380.66;5012524;28;20042;-71
2022/09/08 02:31:20;;;;;;;4.80;4.32;;;;;;;25.03;74.18;100366.63;5012469;28;20053;-70
2022/09/08 02:33:49;;;;;;;5.13;3.95;;;;;;;25.00;74.50;100378.59;5011593;28;20050;-71
2022/09/08 02:36:17;;;;;;;6.32;4.35;;;;;;;25.10;74.09;100377.91;5011451;28;20054;-72
2022/09/08 02:38:52;;;;;;;5.82;4.32;;;;;;;25.04;74.87;100376.63;5011016;28;20053;-72
2022/09/08 02:41:22;;;;;;;8.00;5.07;;;;;;;24.90;75.40;100375.31;5011840;28;20050;-70
2022/09/08 02:43:50;;;;;;;5.50;5.00;;;;;;;24.95;75.47;100371.34;5012401;28;20488;-70
2022/09/08 02:46:19;;;;;;;7.25;4.85;;;;;;;24.94;75.34;100367.75;5012161;28;20042;-71
2022/09/08 02:48:47;;;;;;;4.85;4.35;;;;;;;24.85;75.70;100361.66;5012343;28;20045;-71
2022/09/08 02:51:19;;;;;;;6.15;4.35;;;;;;;24.84;76.19;100362.84;5012318;28;20050;-71
2022/09/08 02:53:47;;;;;;;4.50;4.03;;;;;;;24.95;75.91;100363.78;5012357;28;20507;-70
2022/09/08 02:56:15;;;;;;;5.25;4.32;;;;;;;24.90;76.42;100369.72;5012313;28;20691;-73
2022/09/08 02:58:43;;;;;;;6.75;5.53;;;;;;;24.79;76.15;100369.56;5011028;28;20056;-72
2022/09/08 03:01:11;;;;;;;5.07;4.30;;;;;;;24.76;77.14;100361.94;5011132;28;20054;-71
2022/09/08 03:03:39;;;;;;;5.97;5.00;;;;;;;24.82;76.94;100352.03;5011452;28;20544;-72
2022/09/08 03:06:07;;;;;;;7.88;5.20;;;;;;;24.65;78.13;100338.63;5011751;28;20393;-71
2022/09/08 03:08:36;;;;;;;7.05;5.30;;;;;;;24.67;78.14;100328.69;5010621;28;20045;-72
2022/09/08 03:11:04;;;;;;;6.45;4.88;;;;;;;24.62;78.26;100329.00;5011699;28;20049;-71
2022/09/08 03:13:32;;;;;;;9.40;5.20;;;;;;;24.56;78.66;100316.56;5011755;28;20046;-72
2022/09/08 03:16:00;;;;;;;5.25;4.68;;;;;;;24.60;78.91;100317.41;5011736;28;20042;-71
2022/09/08 03:18:28;;;;;;;5.75;4.95;;;;;;;24.90;77.65;100315.72;5014427;28;20053;-72
2022/09/08 03:21:10;;;;;;;5.88;4.97;;;;;;;24.75;78.17;100293.19;4997730;28;20054;-70
2022/09/08 03:23:38;;;;;;;6.72;5.30;;;;;;;24.64;78.73;100295.84;5015707;28;20053;-70
2022/09/08 03:26:12;;;;;;;6.05;4.63;;;;;;;24.47;80.02;100291.69;5015350;28;20050;-71
2022/09/08 03:28:41;;;;;;;5.47;4.75;;;;;;;24.73;78.97;100300.34;5015326;28;20058;-70
2022/09/08 03:31:12;;;;;;;6.80;5.60;;;;;;;24.60;79.80;100305.41;5014845;28;20065;-69
2022/09/08 03:33:43;;;;;;;6.95;5.68;;;;;;;24.75;79.41;100306.34;5015441;28;20413;-71
2022/09/08 03:36:13;;;;;;;7.47;4.68;;;;;;;24.74;79.19;100290.75;5015428;28;20396;-71
2022/09/08 03:38:42;;;;;;;7.65;4.85;;;;;;;24.69;79.42;100289.91;5015625;28;20049;-71
2022/09/08 03:41:13;;;;;;;9.23;5.35;;;;;;;24.67;79.79;100285.91;5015407;28;20045;-71
2022/09/08 03:43:50;;;;;;;5.80;4.50;;;;;;;24.78;79.44;100280.44;5015625;28;20498;-71
2022/09/08 03:46:19;;;;;;;7.00;5.18;;;;;;;24.89;79.52;100272.16;5014839;28;20060;-71
2022/09/08 03:48:47;;;;;;;5.43;4.90;;;;;;;24.85;79.62;100274.09;5015310;28;20041;-71
2022/09/08 03:51:22;;;;;;;7.68;4.30;;;;;;;24.83;79.45;100272.50;5015285;28;20488;-74
2022/09/08 03:53:51;;;;;;;5.43;4.80;;;;;;;24.80;79.92;100269.63;5015258;28;20042;-74
2022/09/08 03:56:20;;;;;;;7.18;4.88;;;;;;;24.75;80.28;100281.19;5015084;28;20489;-74
2022/09/08 03:58:49;;;;;;;5.72;5.00;;;;;;;24.94;79.52;100306.16;5014080;28;20050;-74
2022/09/08 04:01:18;;;;;;;5.20;4.70;;;;;;;24.85;80.03;100302.91;5015118;28;20045;-72
2022/09/08 04:03:46;;;;;;;7.68;5.32;;;;;;;24.84;79.61;100298.50;5014468;28;20496;-74
2022/09/08 04:06:15;;;;;;;5.90;5.15;;;;;;;24.95;79.19;100304.19;5014904;28;20405;-74
2022/09/08 04:08:43;;;;;;;9.52;5.05;;;;;;;25.00;79.51;100317.00;5014871;28;20049;-73
2022/09/08 04:11:11;;;;;;;5.70;5.05;;;;;;;24.98;79.48;100313.81;5011562;28;20518;-72
2022/09/08 04:13:39;;;;;;;5.20;4.70;;;;;;;24.93;79.54;100303.78;5010335;28;20046;-73
2022/09/08 04:16:07;;;;;;;6.90;4.70;;;;;;;25.06;79.25;100313.47;5013688;28;20417;-73
2022/09/08 04:18:36;;;;;;;5.70;4.80;;;;;;;25.06;79.18;100315.47;5014184;28;20166;-73
2022/09/08 04:21:04;;;;;;;7.35;4.57;;;;;;;24.90;79.82;100284.94;5014034;28;20500;-73
2022/09/08 04:23:33;;;;;;;4.68;4.28;;;;;;;24.88;79.97;100276.94;5013863;28;20053;-74
2022/09/08 04:26:05;;;;;;;4.22;3.88;;;;;;;24.83;80.35;100268.91;5013920;28;20515;-73
2022/09/08 04:28:34;;;;;;;5.22;4.30;;;;;;;24.74;80.66;100277.59;4993608;28;20408;-74
2022/09/08 04:31:11;;;;;;;6.90;4.55;;;;;;;25.02;79.75;100281.06;5011847;28;20057;-73
2022/09/08 04:33:40;;;;;;;6.75;4.88;;;;;;;24.79;80.41;100288.41;5013095;28;20041;-73
2022/09/08 04:36:13;;;;;;;7.18;3.97;;;;;;;24.74;80.42;100286.00;5014011;28;20050;-72
2022/09/08 04:38:58;;;;;;;5.40;4.18;;;;;;;25.00;79.29;100287.03;4996573;28;20049;-91
2022/09/08 04:41:29;;;;;;;6.38;4.55;;;;;;;25.49;76.39;100303.81;4995399;28;20405;-83
2022/09/08 04:44:01;;;;;;;5.18;4.40;;;;;;;25.85;74.48;100304.03;5014441;28;20483;-87
2022/09/08 04:46:31;;;;;;;4.82;4.30;;;;;;;26.15;72.94;100322.59;5014084;28;20046;-84
2022/09/08 04:48:59;;;;;;;4.80;4.35;;;;;;;26.01;73.70;100331.75;5011043;28;20396;-86
2022/09/08 04:51:29;;;;;;;5.18;4.18;;;;;;;25.79;74.87;100327.25;5013640;28;20370;-88
2022/09/08 04:53:59;;;;;;;6.45;4.72;;;;;;;26.13;73.11;100341.03;5013445;28;20424;-88
2022/09/08 04:56:28;;;;;;;5.03;4.53;;;;;;;25.76;74.48;100329.63;5013806;28;20150;-89
2022/09/08 04:59:00;;;;;;;5.63;4.53;;;;;;;25.76;75.20;100334.44;4996535;28;20049;-88
2022/09/08 05:01:31;;;;;;;5.30;4.68;;;;;;;26.23;72.97;100351.53;5012794;28;20050;-83
2022/09/08 05:04:01;;;;;;;5.03;4.50;;;;;;;26.22;72.66;100349.06;5007872;28;20033;-83
2022/09/08 05:06:31;;;;;;;4.80;4.05;;;;;;;26.25;72.93;100325.91;5013251;28;20416;-84
2022/09/08 05:09:00;;;;;;;7.50;4.10;;;;;;;26.12;72.95;100333.81;5012112;28;20145;-85
2022/09/08 05:11:31;;;;;;;4.20;3.80;;;;;;;26.33;72.24;100335.16;5011990;28;20057;-80
2022/09/08 05:13:59;;;;;;;4.20;3.70;;;;;;;26.35;71.60;100327.94;5017498;28;20049;-86
2022/09/08 05:16:28;;;;;;;7.00;4.30;;;;;;;26.53;70.87;100325.19;5010173;28;20042;-83
2022/09/08 05:19:02;;;;;;;4.57;3.88;;;;;;;26.48;71.01;100322.75;5010911;28;20050;-85
2022/09/08 05:21:32;;;;;;;4.72;4.20;;;;;;;26.63;70.25;100314.38;5020488;28;20037;-85
2022/09/08 05:24:02;;;;;;;5.88;4.05;;;;;;;26.54;70.22;100309.94;5015632;28;20046;-89
2022/09/08 05:26:30;;;;;;;5.53;3.90;;;;;;;26.53;70.24;100301.91;5013441;28;20041;-87
2022/09/08 05:28:58;;;;;;;4.00;3.50;;;;;;;26.45;70.37;100284.28;5013556;28;20069;-88
2022/09/08 05:31:28;;;;;;;4.68;3.38;;;;;;;26.58;69.40;100270.66;5012617;28;20049;-82
2022/09/08 05:33:58;;;;;;;4.63;4.05;;;;;;;26.32;70.62;100269.81;5016987;28;20068;-86
2022/09/08 05:36:29;;;;;;;5.57;4.15;;;;;;;26.54;69.82;100262.25;5013605;28;20661;-91
2022/09/08 05:38:57;;;;;;;4.32;3.92;;;;;;;26.34;70.44;100261.81;5009642;28;20034;-84
2022/09/08 05:41:25;;;;;;;7.45;4.15;;;;;;;26.75;68.76;100252.25;5010978;28;20485;-91
2022/09/08 05:43:54;;;;;;;4.80;3.58;;;;;;;26.90;68.17;100249.44;4997661;28;20046;-90
2022/09/08 05:46:25;;;;;;;5.53;3.63;;;;;;;26.66;69.14;100265.88;4974524;28;20069;-87
2022/09/08 05:48:57;;;;;;;4.70;4.15;;;;;;;26.54;69.52;100248.22;5004611;28;20057;-89
2022/09/08 05:51:26;;;;;;;7.65;4.43;;;;;;;26.13;70.76;100243.69;5006899;28;20045;-87
2022/09/08 05:53:58;;;;;;;4.07;3.67;;;;;;;26.23;71.03;100228.13;4995158;28;20045;-87
2022/09/08 05:56:26;;;;;;;4.40;3.95;;;;;;;26.16;70.72;100189.63;4989779;28;20503;-88
2022/09/08 05:59:00;;;;;;;6.70;3.95;;;;;;;26.30;70.32;100177.66;5012756;28;20109;-90
2022/09/08 06:01:33;;;;;;;6.03;4.22;;;;;;;26.12;70.65;100172.00;5013772;28;20046;-86
2022/09/08 06:04:02;;;;;;;6.17;4.27;;;;;;;25.85;71.54;100171.53;4995252;28;20408;-92
2022/09/08 06:06:31;;;;;;;4.30;3.90;;;;;;;26.06;70.90;100179.19;4995552;28;20506;-88
2022/09/08 06:09:00;;;;;;;4.70;4.30;;;;;;;25.93;71.74;100166.72;4995401;28;20057;-89
2022/09/08 06:11:33;;;;;;;8.55;4.50;;;;;;;26.25;70.32;100175.25;5012877;28;20384;-87
2022/09/08 06:14:02;;;;;;;4.93;4.40;;;;;;;26.39;69.58;100187.69;5012741;28;20045;-87
2022/09/08 06:16:30;;;;;;;6.97;4.72;;;;;;;25.87;71.25;100203.59;5011894;28;20038;-87
2022/09/08 06:19:00;;;;;;;7.15;4.22;;;;;;;26.07;70.79;100222.03;5006454;28;20041;-90
2022/09/08 06:21:30;;;;;;;7.53;4.95;;;;;;;26.30;69.91;100250.56;5006408;28;20543;-93
2022/09/08 06:24:03;;;;;;;4.82;4.15;;;;;;;26.59;68.27;100282.72;4988739;28;20058;-91
2022/09/08 06:26:54;;;;;;;6.68;4.20;;;;;;;26.83;67.31;100331.66;4975432;28;20042;-83
2022/09/08 06:29:54;;;;;;;6.32;3.95;;;;;;;26.75;63.21;100352.50;4988917;28;20043;-83
2022/09/08 06:32:38;;;;;;;2.45;2.22;;;;;;;26.48;60.74;100364.84;4986937;28;20046;-85
2022/09/08 06:35:14;;;;;;;2.67;1.45;;;;;;;26.30;61.53;100362.75;4989388;28;20054;-87
2022/09/08 06:37:48;;;;;;;0.95;0.90;;;;;;;25.99;60.37;100364.19;4983336;28;20477;-87
2022/09/08 06:40:34;;;;;;;5.05;1.30;;;;;;;26.05;60.06;100356.22;4994194;28;20054;-87
2022/09/08 06:43:27;;;;;;;1.33;0.57;;;;;;;25.81;59.26;100350.84;4982967;28;20048;-86
2022/09/08 06:45:57;;;;;;;0.80;0.77;;;;;;;25.97;57.96;100339.38;4989344;28;20061;-82
2022/09/08 06:48:33;;;;;;;0.60;0.60;;;;;;;26.08;57.79;100324.56;4989887;28;20046;-84
2022/09/08 06:51:08;;;;;;;2.30;0.90;;;;;;;26.24;58.45;100336.28;5005447;28;20359;-83
2022/09/08 06:53:42;;;;;;;1.33;1.23;;;;;;;26.14;57.69;100328.59;4991709;28;20945;-84
2022/09/08 06:56:21;;;;;;;1.65;0.70;;;;;;;26.28;57.76;100320.28;4993815;28;20053;-84
2022/09/08 06:59:20;;;;;;;1.20;0.98;;;;;;;26.03;57.16;100311.75;4992592;28;20509;-86
2022/09/08 07:02:36;;;;;;;3.75;1.23;;;;;;;26.17;57.59;100300.59;4990978;28;20046;-83
2022/09/08 07:05:33;;;;;;;2.72;1.30;;;;;;;26.13;57.32;100296.97;4990910;28;20046;-86
2022/09/08 07:08:27;;;;;;;3.15;1.08;;;;;;;26.25;57.59;100295.84;5006465;28;20046;-86
2022/09/08 07:11:22;;;;;;;1.73;1.63;;;;;;;26.41;56.91;100294.69;4992633;28;20046;-85
2022/09/08 07:14:13;;;;;;;3.13;1.02;;;;;;;26.61;56.69;100291.53;4990776;28;20062;-85
2022/09/08 07:16:51;;;;;;;3.25;1.10;;;;;;;26.59;55.87;100282.72;4995436;28;20050;-82
2022/09/08 07:19:47;;;;;;;1.33;1.08;;;;;;;26.63;55.84;100270.28;4993921;28;20493;-84
2022/09/08 07:22:26;;;;;;;2.03;1.10;;;;;;;26.64;56.38;100263.47;5013398;28;20416;-86
2022/09/08 07:25:18;;;;;;;1.92;0.95;;;;;;;26.82;55.78;100269.09;5000369;28;20053;-85
2022/09/08 07:27:54;;;;;;;2.00;0.98;;;;;;;26.74;55.65;100277.91;5013591;28;20034;-85
2022/09/08 07:30:22;;;;;;;2.60;1.33;;;;;;;26.75;55.03;100276.72;5014014;28;20539;-84
2022/09/08 07:32:58;;;;;;;1.58;1.05;;;;;;;26.77;54.95;100277.09;5014915;28;20049;-87
2022/09/08 07:35:59;;;;;;;2.88;1.10;;;;;;;26.59;55.59;100277.09;5009391;28;20416;-87
2022/09/08 07:38:36;;;;;;;1.40;0.90;;;;;;;26.75;55.26;100283.13;5012199;28;20049;-86
2022/09/08 07:41:07;;;;;;;1.10;1.00;;;;;;;26.90;55.16;100285.94;5013491;28;20054;-87
2022/09/08 07:43:35;;;;;;;2.60;1.52;;;;;;;26.93;55.14;100285.97;5010073;28;20042;-87
2022/09/08 07:46:27;;;;;;;1.83;1.40;;;;;;;27.13;54.75;100276.34;5010250;28;20071;-86
2022/09/08 07:49:18;;;;;;;4.72;1.88;;;;;;;27.25;54.64;100247.84;5005696;28;20049;-84
2022/09/08 07:52:24;;;;;;;3.45;2.00;;;;;;;27.59;54.33;100247.41;4975963;28;20042;-83
2022/09/08 07:55:15;;;;;;;4.38;1.70;;;;;;;27.47;54.22;100239.41;5013912;28;20045;-82
2022/09/08 07:58:13;;;;;;;2.50;1.50;;;;;;;27.70;53.72;100230.50;5012339;28;20472;-88
2022/09/08 08:01:18;;;;;;;5.90;1.73;;;;;;;27.41;53.09;100224.94;5015099;28;20042;-83
2022/09/08 08:04:03;;;;;;;1.80;1.50;;;;;;;27.53;53.57;100218.09;5010731;28;20492;-84
2022/09/08 08:06:44;;;;;;;3.50;2.13;;;;;;;27.81;52.54;100224.84;4996486;28;20054;-88
2022/09/08 08:09:25;;;;;;;5.47;2.97;;;;;;;27.75;51.49;100240.53;4983960;28;20409;-84
2022/09/08 08:12:05;;;;;;;6.53;3.72;;;;;;;27.81;51.22;100241.69;5011482;28;20069;-83
2022/09/08 08:14:47;;;;;;;6.47;2.65;;;;;;;28.00;50.64;100239.63;4980759;28;20046;-87
2022/09/08 08:17:32;;;;;;;6.13;2.03;;;;;;;28.06;50.43;100240.81;5017638;28;20477;-85
2022/09/08 08:20:32;;;;;;;3.42;1.63;;;;;;;28.30;49.51;100249.53;5021833;28;20116;-92
2022/09/08 08:23:05;;;;;;;3.42;1.60;;;;;;;28.39;48.42;100255.50;5012487;28;20050;-93
2022/09/08 08:25:50;;;;;;;4.32;1.40;;;;;;;28.45;49.19;100264.31;5005802;28;20042;-85
2022/09/08 08:28:20;;;;;;;4.60;1.48;;;;;;;28.62;49.74;100276.66;5010375;28;20060;-89
2022/09/08 08:31:14;;;;;;;2.88;1.70;;;;;;;28.84;49.52;100273.72;5009443;28;20605;-88
2022/09/08 08:33:45;;;;;;;4.32;2.25;;;;;;;28.92;48.82;100277.28;5021203;28;20049;-89
2022/09/08 08:36:17;;;;;;;7.78;2.20;;;;;;;29.11;48.92;100287.19;5015748;28;20060;-91
2022/09/08 08:39:15;;;;;;;5.22;1.75;;;;;;;29.26;48.44;100298.34;4988092;28;20048;-83
2022/09/08 08:41:46;;;;;;;3.85;1.60;;;;;;;29.24;47.13;100312.84;4996659;28;20045;-86
2022/09/08 08:44:30;;;;;;;3.40;1.40;;;;;;;29.08;47.63;100321.81;5010944;28;20046;-87
2022/09/08 08:47:36;;;;;;;3.22;1.63;;;;;;;29.13;46.82;100332.66;5012689;28;20050;-89
2022/09/08 08:50:22;;;;;;;1.67;1.30;;;;;;;29.04;47.00;100335.94;5010087;28;20053;-86
2022/09/08 08:52:59;;;;;;;2.08;1.38;;;;;;;29.30;47.62;100344.97;5012023;28;20046;-85
2022/09/08 08:55:55;;;;;;;2.00;1.23;;;;;;;29.29;48.22;100346.19;5011816;28;20054;-84
2022/09/08 08:58:35;;;;;;;1.50;1.20;;;;;;;29.30;48.83;100349.81;5013356;28;20046;-84
2022/09/08 09:01:16;;;;;;;2.38;1.70;;;;;;;29.09;49.94;100351.59;5011344;28;20480;-83
2022/09/08 09:04:18;;;;;;;5.22;1.80;;;;;;;29.10;51.56;100361.63;5013255;28;20061;-83
2022/09/08 09:07:01;;;;;;;4.38;1.90;;;;;;;29.05;51.92;100359.25;5022267;28;20041;-84
2022/09/08 09:09:52;;;;;;;4.97;1.90;;;;;;;28.81;53.27;100365.44;5017026;28;20050;-83
2022/09/08 09:12:41;;;;;;;5.07;2.17;;;;;;;28.81;53.26;100364.63;5013767;28;20038;-84
2022/09/08 09:15:39;;;;;;;3.20;2.25;;;;;;;28.70;53.43;100370.31;5013697;28;20049;-84
2022/09/08 09:18:26;;;;;;;3.45;1.90;;;;;;;28.93;52.72;100361.34;5010356;28;20050;-84
2022/09/08 09:21:11;;;;;;;3.28;1.90;;;;;;;29.15;52.01;100346.31;5013788;28;20049;-84
2022/09/08 09:23:51;;;;;;;;;;;;;;;29.23;51.51;100345.03;5011840;28;20507;-84
2022/09/08 09:26:21;;;;;;;1.70;1.58;;;;;;;29.35;50.28;100343.72;5013132;28;19921;-86
2022/09/08 09:29:07;;;;;;;2.28;1.60;;;;;;;29.56;49.71;100347.59;5009464;28;20362;-84
2022/09/08 09:31:50;;;;;;;2.78;1.90;;;;;;;29.73;48.86;100343.00;5010059;28;20034;-85
2022/09/08 09:34:36;;;;;;;4.22;1.98;;;;;;;29.68;48.62;100341.44;5011258;28;20045;-84
2022/09/08 09:37:23;;;;;;;4.57;1.85;;;;;;;29.81;48.28;100346.53;4996582;28;20042;-84
2022/09/08 09:40:05;;;;;;;3.38;1.67;;;;;;;29.50;48.83;100338.78;5014678;28;20042;-84
2022/09/08 09:42:49;;;;;;;3.58;1.90;;;;;;;29.81;48.68;100341.69;5019575;28;20056;-85
2022/09/08 09:45:23;;;;;;;2.45;2.20;;;;;;;29.94;48.92;100335.50;5019689;28;20038;-84
2022/09/08 09:48:03;;;;;;;4.07;1.92;;;;;;;30.11;47.97;100337.34;5015981;28;20056;-85
2022/09/08 09:50:40;;;;;;;4.20;1.98;;;;;;;30.14;48.58;100333.69;5008559;28;20049;-84
2022/09/08 09:53:20;;;;;;;1.70;1.60;;;;;;;29.81;48.51;100336.03;5008271;28;20050;-87
2022/09/08 09:56:45;;;;;;;6.57;2.00;;;;;;;29.95;47.91;100335.09;4991404;28;20064;-84
2022/09/08 09:59:38;;;;;;;2.70;2.20;;;;;;;29.92;48.27;100330.31;5007297;28;20057;-86
2022/09/08 10:02:50;;;;;;;3.75;1.92;;;;;;;30.02;48.18;100325.75;4994057;28;20042;-86
2022/09/08 10:05:21;;;;;;;4.45;1.90;;;;;;;30.18;48.12;100336.47;5009680;28;20050;-86
2022/09/08 10:07:55;;;;;;;2.88;1.77;;;;;;;30.10;47.56;100318.03;5018087;28;20041;-88
2022/09/08 10:10:26;;;;;;;2.53;1.90;;;;;;;30.11;47.44;100319.63;5010357;28;20042;-87
2022/09/08 10:13:19;;;;;;;3.17;2.30;;;;;;;30.13;47.22;100317.19;5011595;28;20515;-87
2022/09/08 10:16:15;;;;;;;3.15;2.20;;;;;;;30.02;47.61;100320.88;5009134;28;20081;-88
2022/09/08 10:19:03;;;;;;;4.40;1.75;;;;;;;30.20;47.67;100317.06;4991740;28;20050;-88
2022/09/08 10:21:55;;;;;;;2.47;1.92;;;;;;;30.31;47.64;100314.91;5010881;28;20122;-86
2022/09/08 10:24:26;;;;;;;2.85;2.10;;;;;;;30.61;47.49;100323.00;5018080;28;20484;-87
2022/09/08 10:27:20;;;;;;;2.92;2.17;;;;;;;30.74;47.07;100317.59;5024841;28;20042;-85
2022/09/08 10:30:26;;;;;;;2.63;1.95;;;;;;;30.94;46.35;100315.66;5003690;28;20404;-88
2022/09/08 10:33:18;;;;;;;3.28;1.73;;;;;;;30.90;46.14;100316.94;5002125;28;20050;-87
2022/09/08 10:35:52;;;;;;;2.30;1.95;;;;;;;30.93;45.93;100314.06;4976756;28;20045;-87
2022/09/08 10:38:44;;;;;;;2.10;1.90;;;;;;;31.03;45.96;100309.44;5007531;28;20039;-87
2022/09/08 10:41:21;;;;;;;3.70;1.75;;;;;;;30.94;46.01;100312.81;5011084;28;20068;-86
2022/09/08 10:44:01;;;;;;;6.63;2.05;;;;;;;31.10;45.67;100306.53;5011017;28;20042;-87
2022/09/08 10:46:48;;;;;;;3.10;1.77;;;;;;;30.88;45.99;100303.22;5010555;28;20053;-87
2022/09/08 10:49:57;;;;;;;5.13;1.90;;;;;;;30.97;46.31;100299.88;5009003;28;20048;-85
2022/09/08 10:52:32;;;;;;;3.03;2.10;;;;;;;31.01;46.05;100299.81;4999833;28;20057;-86
2022/09/08 10:55:12;;;;;;;3.80;2.33;;;;;;;30.95;46.16;100294.66;5010564;28;20068;-84
2022/09/08 10:57:57;;;;;;;4.10;2.10;;;;;;;30.72;46.02;100306.72;5008970;28;20053;-84
2022/09/08 11:00:36;;;;;;;2.78;1.83;;;;;;;30.66;46.59;100297.09;5010282;28;20052;-85
2022/09/08 11:03:19;;;;;;;4.22;2.10;;;;;;;30.80;47.23;100296.91;5008769;28;20049;-84
2022/09/08 11:06:31;;;;;;;5.25;2.30;;;;;;;31.29;46.12;100303.41;5008394;28;20059;-87
2022/09/08 11:09:27;;;;;;;4.13;2.50;;;;;;;31.53;45.09;100301.34;4971765;28;20046;-87
2022/09/08 11:12:20;;;;;;;4.20;2.25;;;;;;;31.47;44.75;100303.09;5007307;28;20049;-89
2022/09/08 11:15:04;;;;;;;5.15;2.08;;;;;;;31.41;44.64;100310.47;4988993;28;20042;-87
2022/09/08 11:17:46;;;;;;;2.33;2.10;;;;;;;31.52;44.65;100294.09;5001219;28;20409;-86
2022/09/08 11:20:27;;;;;;;4.93;2.10;;;;;;;31.59;44.61;100291.13;5002409;28;20566;-92
2022/09/08 11:23:23;;;;;;;3.95;1.98;;;;;;;31.45;44.33;100295.03;5021458;28;20052;-89
2022/09/08 11:26:07;;;;;;;3.72;2.38;;;;;;;31.76;44.35;100289.19;4992906;28;20145;-85
2022/09/08 11:28:53;;;;;;;2.15;1.95;;;;;;;31.93;44.23;100294.13;5024083;28;20491;-87
2022/09/08 11:31:27;;;;;;;3.95;1.98;;;;;;;31.99;43.72;100286.72;5022988;28;20504;-85
2022/09/08 11:34:07;;;;;;;2.22;1.75;;;;;;;31.85;43.95;100282.97;5015322;28;20046;-86
2022/09/08 11:36:53;;;;;;;6.07;2.58;;;;;;;31.93;43.91;100294.13;5007474;28;20451;-85
2022/09/08 11:39:49;;;;;;;4.15;1.85;;;;;;;32.05;43.18;100268.00;5012725;28;20049;-82
2022/09/08 11:43:00;;;;;;;3.53;2.72;;;;;;;31.86;43.80;100267.59;5013677;28;20049;-84
2022/09/08 11:45:51;;;;;;;3.58;1.85;;;;;;;31.56;43.99;100275.03;5021481;28;20049;-86
2022/09/08 11:49:01;;;;;;;6.15;1.95;;;;;;;31.46;44.53;100273.19;5014354;28;20050;-87
2022/09/08 11:52:15;;;;;;;3.90;2.15;;;;;;;30.94;44.83;100270.44;5011653;28;20046;-84
2022/09/08 11:55:30;;;;;;;2.97;2.13;;;;;;;30.87;45.16;100272.63;5009923;28;20038;-87
2022/09/08 11:58:13;;;;;;;4.22;2.08;;;;;;;31.13;44.91;100282.22;5015419;28;20049;-83
2022/09/08 12:01:06;;;;;;;5.32;2.03;;;;;;;31.34;44.76;100281.09;5011528;28;20038;-86
2022/09/08 12:03:59;;;;;;;3.80;2.38;;;;;;;31.58;44.58;100286.72;5012818;28;20408;-84
2022/09/08 12:06:43;;;;;;;2.28;1.80;;;;;;;31.88;43.53;100282.13;5013314;28;20052;-82
2022/09/08 12:09:21;;;;;;;5.97;2.50;;;;;;;32.01;43.01;100273.75;5013684;28;20041;-84
2022/09/08 12:12:23;;;;;;;3.10;1.77;;;;;;;32.50;42.06;100263.78;5014729;28;20050;-85
2022/09/08 12:15:01;;;;;;;2.72;1.75;;;;;;;32.16;42.09;100262.91;5014748;28;20481;-83
2022/09/08 12:17:38;;;;;;;2.90;1.98;;;;;;;31.82;42.95;100271.72;5013580;28;20054;-84
2022/09/08 12:20:24;;;;;;;5.10;1.92;;;;;;;31.97;42.66;100263.75;5013179;28;20045;-83